Roanoke, Ohio
Current Conditions -  °F | °C
As of 9:53 AM on Tuesday 21 Oct 2014 (Local Time) from KPHD Reporting Station
Light Rain Light Rain  
Wind Chill: 52°   Ceiling: 1300
Heat Index: 52°   Visibility: 7mi
Dew Point: 48°   Wind: 8mph
Humidity: 86%   Direction: 350°N
Pressure: 29.91"   Gusts: NA
Location:  40.3767°N, 81.2875°W
Report Text: KPHD 211353Z AUTO 35007KT 7SM -RA BKN013 BKN030 OVC055 11/09 A2991 RMK AO2 RAB45 SLP131 P0001 T01110089
Loading
Personal Weather Stations






























Interactive Weather Map
Tropical Storm Tracking
New forecast layout! Learn more

10-Day Weather Forecast

Advertisements
Track Severe Weather on mobile